createdAt,value
2018-11-26T00:02:01.668Z,34.87
2018-11-26T00:04:29.965Z,37.73
2018-11-26T00:06:58.325Z,38.17
2018-11-26T00:09:26.610Z,36.33
2018-11-26T00:11:54.986Z,36.87
2018-11-26T00:14:23.306Z,38.63
2018-11-26T00:16:51.633Z,37.33
2018-11-26T00:19:19.905Z,37.43
2018-11-26T00:21:48.289Z,37.60
2018-11-26T00:27:09.617Z,36.40
2018-11-26T00:29:38.182Z,35.43
2018-11-26T00:32:06.534Z,34.70
2018-11-26T00:34:34.904Z,34.83
2018-11-26T00:37:03.375Z,36.03
2018-11-26T00:39:31.642Z,34.83
2018-11-26T00:42:00.393Z,34.17
2018-11-26T00:44:28.749Z,35.97
2018-11-26T00:46:57.006Z,34.53
2018-11-26T00:49:25.844Z,34.83
2018-11-26T00:51:54.265Z,37.53
2018-11-26T00:54:22.550Z,33.60
2018-11-26T00:56:50.857Z,34.03
2018-11-26T00:59:19.271Z,34.23
2018-11-26T01:01:47.511Z,34.60
2018-11-26T01:04:16.179Z,33.37
2018-11-26T01:06:44.451Z,34.50
2018-11-26T01:09:12.831Z,32.37
2018-11-26T01:11:41.118Z,31.73
2018-11-26T01:14:09.365Z,34.13
2018-11-26T01:16:37.638Z,33.33
2018-11-26T01:19:06.489Z,34.20
2018-11-26T01:21:34.818Z,32.87
2018-11-26T01:24:03.080Z,34.30
2018-11-26T01:26:31.330Z,34.87
2018-11-26T01:28:59.582Z,32.70
2018-11-26T01:31:27.974Z,33.07
2018-11-26T01:33:56.267Z,34.97
2018-11-26T01:36:24.556Z,31.67
2018-11-26T01:38:52.834Z,34.97
2018-11-26T01:41:21.106Z,34.00
2018-11-26T01:43:49.359Z,33.60
2018-11-26T01:46:17.634Z,33.00
2018-11-26T01:48:46.006Z,35.03
2018-11-26T01:51:14.361Z,34.57
2018-11-26T01:53:42.663Z,33.50
2018-11-26T01:56:10.922Z,31.70
2018-11-26T01:58:39.193Z,33.20
2018-11-26T02:01:07.450Z,36.53
2018-11-26T02:03:35.751Z,32.17
2018-11-26T02:06:04.045Z,32.60
2018-11-26T02:08:32.314Z,33.03
2018-11-26T02:11:00.741Z,37.53
2018-11-26T02:13:29.082Z,36.40
2018-11-26T02:15:57.447Z,35.13
2018-11-26T02:18:25.956Z,35.93
2018-11-26T02:20:54.280Z,34.03
2018-11-26T02:23:22.576Z,33.43
2018-11-26T02:25:50.887Z,34.23
2018-11-26T02:28:19.152Z,34.87
2018-11-26T02:30:47.410Z,35.43
2018-11-26T02:33:15.967Z,34.73
2018-11-26T02:35:44.227Z,33.67
2018-11-26T02:38:12.469Z,33.10
2018-11-26T02:40:40.773Z,32.47
2018-11-26T02:43:09.063Z,32.63
2018-11-26T02:45:37.347Z,35.07
2018-11-26T02:48:06.151Z,34.10
2018-11-26T02:50:34.392Z,34.70
2018-11-26T02:53:02.672Z,35.00
2018-11-26T02:55:30.950Z,33.50
2018-11-26T02:57:59.231Z,34.90
2018-11-26T03:00:27.585Z,34.50
2018-11-26T03:02:56.041Z,33.13
2018-11-26T03:05:27.214Z,34.07
2018-11-26T03:07:55.603Z,34.90
2018-11-26T03:10:24.075Z,33.87
2018-11-26T03:12:52.313Z,35.90
2018-11-26T03:15:20.756Z,36.97
2018-11-26T03:17:49.237Z,35.33
2018-11-26T03:20:17.506Z,35.60
2018-11-26T03:22:45.792Z,35.53
2018-11-26T03:25:14.052Z,36.07
2018-11-26T03:27:42.346Z,35.97
2018-11-26T03:30:13.714Z,33.93
2018-11-26T03:32:42.065Z,34.83
2018-11-26T03:35:10.551Z,35.03
2018-11-26T03:37:38.959Z,34.67
2018-11-26T03:40:09.154Z,35.00
2018-11-26T03:42:37.405Z,33.33
2018-11-26T03:45:08.397Z,35.77
2018-11-26T03:47:36.644Z,34.43
2018-11-26T03:50:05.250Z,35.07
2018-11-26T03:52:33.517Z,34.23
2018-11-26T03:55:01.812Z,34.63
2018-11-26T03:57:30.145Z,34.20
2018-11-26T03:59:58.484Z,34.60
2018-11-26T04:02:26.765Z,34.57
2018-11-26T04:04:55.060Z,33.53
2018-11-26T04:07:23.393Z,34.50
2018-11-26T04:09:51.627Z,35.23
2018-11-26T04:12:19.886Z,35.43
2018-11-26T04:14:48.229Z,35.30
2018-11-26T04:17:16.515Z,33.70
2018-11-26T04:19:44.796Z,33.53
2018-11-26T04:22:13.111Z,33.93
2018-11-26T04:24:41.419Z,33.00
2018-11-26T04:27:09.660Z,33.87
2018-11-26T04:29:37.935Z,32.47
2018-11-26T04:32:06.223Z,34.83
2018-11-26T04:34:34.613Z,32.77
2018-11-26T04:37:02.945Z,33.03
2018-11-26T04:39:31.218Z,34.30
2018-11-26T04:41:59.638Z,34.40
2018-11-26T04:44:27.933Z,32.20
2018-11-26T04:46:56.257Z,31.87
2018-11-26T04:49:24.615Z,33.43
2018-11-26T04:51:52.866Z,32.27
2018-11-26T04:54:21.113Z,33.17
2018-11-26T04:56:49.391Z,33.10
2018-11-26T04:59:17.653Z,30.93
2018-11-26T05:01:51.411Z,31.93
2018-11-26T05:04:19.672Z,31.00
2018-11-26T05:06:47.923Z,32.17
2018-11-26T05:09:16.236Z,30.90
2018-11-26T05:11:44.492Z,34.33
2018-11-26T05:14:12.785Z,32.50
2018-11-26T05:16:41.095Z,32.57
2018-11-26T05:19:09.687Z,32.03
2018-11-26T05:21:37.980Z,32.50
2018-11-26T05:24:06.291Z,32.73
2018-11-26T05:26:34.861Z,33.30
2018-11-26T05:29:03.171Z,33.57
2018-11-26T05:31:31.475Z,33.37
2018-11-26T05:33:59.742Z,31.63
2018-11-26T05:36:28.003Z,33.00
2018-11-26T05:38:56.274Z,34.50
2018-11-26T05:41:24.595Z,32.77
2018-11-26T05:43:52.845Z,32.43
2018-11-26T05:46:21.185Z,32.57
2018-11-26T05:48:49.486Z,31.57
2018-11-26T05:51:17.778Z,30.40
2018-11-26T05:53:48.068Z,30.77
2018-11-26T05:56:16.495Z,33.33
2018-11-26T05:58:46.325Z,32.03
2018-11-26T06:01:17.024Z,32.67
2018-11-26T06:03:45.402Z,32.53
2018-11-26T06:06:14.058Z,31.87
2018-11-26T06:08:42.763Z,32.53
2018-11-26T06:11:11.071Z,31.63
2018-11-26T06:13:39.444Z,30.60
2018-11-26T06:16:07.748Z,31.97
2018-11-26T06:18:36.138Z,32.40
2018-11-26T06:21:04.546Z,32.90
2018-11-26T06:23:33.029Z,31.67
2018-11-26T06:26:01.442Z,30.77
2018-11-26T06:28:29.729Z,40.43
2018-11-26T06:30:58.551Z,33.53
2018-11-26T06:33:26.955Z,31.93
2018-11-26T06:35:55.345Z,30.10
2018-11-26T06:38:23.651Z,31.60
2018-11-26T06:40:51.932Z,35.00
2018-11-26T06:43:20.236Z,31.33
2018-11-26T06:45:48.578Z,33.83
2018-11-26T06:48:16.859Z,31.97
2018-11-26T06:50:45.098Z,34.90
2018-11-26T06:53:14.339Z,33.57
2018-11-26T06:55:42.624Z,32.03
2018-11-26T06:58:10.899Z,32.37
2018-11-26T07:00:39.271Z,34.27
2018-11-26T07:03:07.557Z,33.88
2018-11-26T07:05:35.858Z,33.73
2018-11-26T07:08:04.131Z,32.47
2018-11-26T07:10:32.519Z,30.70
2018-11-26T07:13:00.847Z,30.73
2018-11-26T07:15:29.150Z,31.43
2018-11-26T07:17:57.430Z,30.23
2018-11-26T07:20:25.687Z,33.40
2018-11-26T07:22:54.087Z,30.00
2018-11-26T07:25:22.370Z,29.33
2018-11-26T07:27:54.506Z,32.27
2018-11-26T07:30:30.202Z,31.57
2018-11-26T07:33:01.274Z,31.93
2018-11-26T07:35:29.915Z,31.47
2018-11-26T07:37:58.239Z,31.07
2018-11-26T07:40:26.622Z,31.93
2018-11-26T07:43:01.300Z,31.27
2018-11-26T07:45:29.614Z,31.43
2018-11-26T07:47:57.982Z,30.87
2018-11-26T07:50:26.331Z,30.43
2018-11-26T07:52:54.742Z,30.20
2018-11-26T07:55:23.031Z,31.33
2018-11-26T07:57:51.291Z,32.00
2018-11-26T08:00:20.710Z,30.97
2018-11-26T08:02:49.499Z,31.17
2018-11-26T08:05:18.920Z,32.23
2018-11-26T08:07:47.213Z,30.50
2018-11-26T08:10:16.579Z,31.70
2018-11-26T08:12:45.366Z,31.13
2018-11-26T08:15:14.874Z,32.00
2018-11-26T08:17:43.262Z,31.63
2018-11-26T08:20:11.833Z,30.13
2018-11-26T08:22:40.165Z,31.80
2018-11-26T08:25:10.388Z,31.23
2018-11-26T08:27:38.936Z,30.87
2018-11-26T08:30:12.752Z,31.33
2018-11-26T08:32:41.111Z,31.03
2018-11-26T08:35:10.650Z,30.60
2018-11-26T08:37:43.139Z,31.87
2018-11-26T08:40:11.821Z,31.73
2018-11-26T08:42:40.884Z,33.90
2018-11-26T08:45:15.066Z,33.27
2018-11-26T08:47:43.462Z,31.07
2018-11-26T08:50:11.769Z,29.47
2018-11-26T08:52:40.078Z,31.80
2018-11-26T08:55:08.563Z,31.80
2018-11-26T08:57:36.856Z,33.57
2018-11-26T09:00:06.142Z,33.17
2018-11-26T09:02:38.644Z,32.40
2018-11-26T09:05:11.619Z,31.60
2018-11-26T09:07:39.886Z,32.73
2018-11-26T09:10:08.627Z,32.57
2018-11-26T09:12:37.208Z,32.13
2018-11-26T09:15:06.322Z,31.97
2018-11-26T09:17:34.634Z,30.40
2018-11-26T09:20:02.996Z,32.03
2018-11-26T09:22:31.342Z,31.03
2018-11-26T09:24:59.738Z,31.93
2018-11-26T09:27:28.031Z,34.53
2018-11-26T09:29:56.554Z,34.03
2018-11-26T09:32:24.840Z,33.53
2018-11-26T09:34:53.246Z,31.63
2018-11-26T09:37:21.474Z,32.03
2018-11-26T09:39:49.819Z,32.03
2018-11-26T09:42:18.169Z,32.33
2018-11-26T09:44:46.476Z,33.53
2018-11-26T09:47:19.562Z,33.27
2018-11-26T09:49:47.915Z,31.93
2018-11-26T09:52:16.225Z,32.20
2018-11-26T09:54:44.535Z,32.93
2018-11-26T09:57:13.265Z,32.90
2018-11-26T09:59:41.603Z,33.27
2018-11-26T10:02:09.968Z,34.30
2018-11-26T10:04:38.230Z,33.43
2018-11-26T10:07:06.908Z,33.90
2018-11-26T10:09:35.215Z,33.53
2018-11-26T10:12:03.486Z,33.93
2018-11-26T10:14:31.779Z,34.73
2018-11-26T10:17:00.114Z,35.57
2018-11-26T10:19:28.618Z,35.67
2018-11-26T10:21:56.710Z,33.60
2018-11-26T10:24:25.008Z,34.27
2018-11-26T10:26:53.318Z,36.03
2018-11-26T10:29:21.622Z,34.00
2018-11-26T10:31:50.034Z,34.20
2018-11-26T10:34:18.335Z,33.60
2018-11-26T10:36:46.613Z,34.23
2018-11-26T10:39:14.914Z,35.90
2018-11-26T10:41:43.162Z,33.77
2018-11-26T10:44:11.503Z,35.47
2018-11-26T10:46:40.382Z,33.73
2018-11-26T10:49:08.646Z,35.27
2018-11-26T10:51:37.004Z,37.30
2018-11-26T10:54:05.356Z,35.40
2018-11-26T10:56:33.651Z,34.53
2018-11-26T10:59:01.952Z,36.03
2018-11-26T11:01:35.608Z,33.13
2018-11-26T11:04:03.892Z,33.73
2018-11-26T11:06:32.233Z,33.30
2018-11-26T11:09:00.615Z,36.33
2018-11-26T11:11:28.903Z,35.70
2018-11-26T11:13:57.230Z,35.67
2018-11-26T11:16:25.862Z,33.37
2018-11-26T11:18:54.135Z,34.43
2018-11-26T11:21:22.438Z,35.27
2018-11-26T11:23:50.732Z,32.03
2018-11-26T11:26:19.122Z,29.97
2018-11-26T11:28:47.479Z,33.57
2018-11-26T11:31:15.780Z,31.47
2018-11-26T11:33:44.120Z,31.63
2018-11-26T11:36:12.395Z,33.27
2018-11-26T11:38:40.684Z,32.30
2018-11-26T11:41:08.979Z,32.03
2018-11-26T11:43:37.256Z,32.37
2018-11-26T11:46:06.412Z,32.90
2018-11-26T11:48:34.764Z,31.83
2018-11-26T11:51:03.082Z,29.37
2018-11-26T11:53:31.381Z,30.60
2018-11-26T11:55:59.756Z,32.20
2018-11-26T11:58:28.830Z,30.23
2018-11-26T12:00:57.137Z,31.13
2018-11-26T12:03:25.460Z,30.40
2018-11-26T12:05:53.761Z,31.20
2018-11-26T12:08:22.195Z,31.30
2018-11-26T12:10:50.580Z,31.00
2018-11-26T12:13:19.087Z,28.93
2018-11-26T12:15:52.248Z,28.20
2018-11-26T12:18:20.559Z,29.40
2018-11-26T12:20:48.860Z,29.43
2018-11-26T12:23:17.166Z,28.53
2018-11-26T12:25:45.562Z,28.47
2018-11-26T12:28:13.868Z,28.47
2018-11-26T12:30:44.747Z,28.67
2018-11-26T12:33:13.034Z,30.00
2018-11-26T12:35:41.398Z,29.53
2018-11-26T12:38:09.750Z,29.80
2018-11-26T12:40:38.088Z,28.73
2018-11-26T12:43:06.878Z,30.23
2018-11-26T12:45:35.392Z,31.23
2018-11-26T12:48:03.676Z,29.20
2018-11-26T12:50:31.994Z,30.63
2018-11-26T12:53:00.331Z,30.43
2018-11-26T12:55:28.704Z,32.47
2018-11-26T12:57:57.809Z,34.07
2018-11-26T13:00:27.046Z,33.00
2018-11-26T13:03:03.524Z,33.23
2018-11-26T13:05:31.854Z,33.60
2018-11-26T13:08:00.142Z,35.07
2018-11-26T13:10:28.524Z,34.33
2018-11-26T13:12:56.837Z,33.17
2018-11-26T13:15:26.410Z,34.57
2018-11-26T13:17:54.732Z,33.57
2018-11-26T13:20:25.592Z,34.60
2018-11-26T13:22:54.172Z,33.03
2018-11-26T13:25:24.492Z,32.97
2018-11-26T13:27:55.750Z,33.57
2018-11-26T13:30:31.100Z,33.57
2018-11-26T13:33:01.352Z,34.93
2018-11-26T13:35:29.609Z,35.57
2018-11-26T13:37:58.125Z,33.63
2018-11-26T13:40:26.270Z,31.00
2018-11-26T13:42:54.524Z,33.23
2018-11-26T13:45:25.991Z,35.13
2018-11-26T13:47:54.444Z,34.80
2018-11-26T13:50:26.652Z,32.40
2018-11-26T13:52:55.120Z,35.93
2018-11-26T13:55:25.084Z,32.70
2018-11-26T13:57:53.391Z,31.23
2018-11-26T14:00:21.699Z,30.80
2018-11-26T14:02:50.003Z,32.57
2018-11-26T14:05:18.835Z,33.17
2018-11-26T14:07:47.476Z,30.53
2018-11-26T14:10:22.727Z,31.93
2018-11-26T14:12:54.678Z,32.03
2018-11-26T14:15:22.712Z,31.63
2018-11-26T14:17:51.012Z,32.27
2018-11-26T14:20:19.295Z,34.23
2018-11-26T14:22:47.678Z,32.00
2018-11-26T14:25:16.870Z,30.27
2018-11-26T14:27:45.573Z,29.10
2018-11-26T14:30:16.191Z,32.10
2018-11-26T14:32:44.486Z,29.20
2018-11-26T14:35:12.803Z,32.60
2018-11-26T14:37:41.111Z,32.83
2018-11-26T14:40:11.851Z,33.93
2018-11-26T14:42:40.130Z,32.17
2018-11-26T14:45:10.343Z,30.03
2018-11-26T14:47:38.610Z,33.27
2018-11-26T14:50:11.960Z,31.17
2018-11-26T14:52:40.609Z,30.63
2018-11-26T14:55:12.320Z,30.63
2018-11-26T14:57:40.650Z,31.07
2018-11-26T15:00:13.248Z,31.97
2018-11-26T15:02:41.646Z,32.33
2018-11-26T15:05:09.980Z,31.57
2018-11-26T15:07:38.488Z,32.87
2018-11-26T15:10:12.584Z,31.87
2018-11-26T15:12:41.182Z,32.20
2018-11-26T15:15:18.525Z,31.97
2018-11-26T15:17:46.803Z,29.80
2018-11-26T15:20:18.284Z,31.57
2018-11-26T15:22:46.873Z,30.43
2018-11-26T15:25:16.398Z,30.33
2018-11-26T15:27:44.747Z,30.13
2018-11-26T15:30:16.751Z,32.13
2018-11-26T15:32:45.064Z,30.70
2018-11-26T15:35:15.146Z,30.10
2018-11-26T15:37:43.562Z,31.30
2018-11-26T15:40:12.808Z,29.87
2018-11-26T15:42:41.161Z,31.33
2018-11-26T15:45:17.781Z,28.73
2018-11-26T15:47:46.194Z,30.73
2018-11-26T15:50:14.511Z,30.57
2018-11-26T15:52:42.819Z,29.47
2018-11-26T15:55:13.243Z,29.93
2018-11-26T15:57:41.693Z,29.30
2018-11-26T16:00:16.755Z,28.33
2018-11-26T16:02:45.346Z,30.70
2018-11-26T16:05:15.115Z,29.07
2018-11-26T16:07:43.502Z,30.63
2018-11-26T16:10:12.936Z,29.20
2018-11-26T16:12:41.653Z,29.70
2018-11-26T16:15:13.383Z,28.53
2018-11-26T16:17:41.725Z,29.27
2018-11-26T16:20:15.368Z,30.30
2018-11-26T16:22:50.754Z,30.43
2018-11-26T16:25:20.491Z,29.47
2018-11-26T16:27:48.793Z,30.27
2018-11-26T16:30:17.914Z,33.10
2018-11-26T16:32:47.791Z,30.23
2018-11-26T16:35:22.238Z,29.17
2018-11-26T16:37:50.542Z,30.53
2018-11-26T16:40:18.905Z,30.37
2018-11-26T16:42:47.235Z,30.27
2018-11-26T16:45:18.564Z,28.17
2018-11-26T16:47:49.066Z,38.63
2018-11-26T16:50:18.288Z,33.40
2018-11-26T16:52:46.667Z,31.57
2018-11-26T16:55:15.590Z,31.53
2018-11-26T16:57:43.928Z,30.83
2018-11-26T17:00:18.316Z,37.42
2018-11-26T17:02:47.460Z,31.07
2018-11-26T17:05:20.119Z,32.47
2018-11-26T17:07:48.671Z,30.43
2018-11-26T17:10:16.999Z,30.83
2018-11-26T17:12:45.354Z,30.33
2018-11-26T17:15:14.738Z,29.50
2018-11-26T17:17:43.196Z,32.25
2018-11-26T17:20:12.483Z,31.43
2018-11-26T17:22:40.960Z,30.20
2018-11-26T17:25:12.229Z,29.23
2018-11-26T17:27:40.922Z,30.97
2018-11-26T17:30:12.674Z,27.70
2018-11-26T17:32:41.217Z,28.73
2018-11-26T17:35:10.871Z,27.43
2018-11-26T17:37:42.887Z,28.60
2018-11-26T17:40:09.533Z,27.50
2018-11-26T17:42:37.834Z,27.07
2018-11-26T17:45:08.241Z,26.00
2018-11-26T17:47:36.540Z,28.23
2018-11-26T17:50:21.176Z,27.07
2018-11-26T17:52:49.684Z,27.63
2018-11-26T17:55:17.968Z,28.00
2018-11-26T17:57:46.351Z,29.07
2018-11-26T18:00:19.101Z,27.07
2018-11-26T18:02:55.420Z,26.23
2018-11-26T18:05:26.083Z,28.20
2018-11-26T18:08:01.364Z,30.97
2018-11-26T18:10:29.659Z,28.17
2018-11-26T18:12:58.012Z,28.60
2018-11-26T18:15:26.385Z,27.10
2018-11-26T18:17:55.691Z,28.17
2018-11-26T18:20:24.212Z,29.30
2018-11-26T18:22:53.455Z,28.20
2018-11-26T18:25:22.439Z,28.53
2018-11-26T18:27:57.660Z,28.30
2018-11-26T18:30:30.494Z,29.07
2018-11-26T18:32:59.444Z,29.00
2018-11-26T18:35:27.771Z,29.87
2018-11-26T18:37:57.091Z,29.70
2018-11-26T18:40:25.601Z,35.08
2018-11-26T18:42:53.949Z,30.13
2018-11-26T18:45:22.448Z,29.33
2018-11-26T18:47:50.747Z,27.77
2018-11-26T18:50:20.798Z,29.27
2018-11-26T18:52:50.289Z,30.40
2018-11-26T18:55:21.044Z,26.63
2018-11-26T18:57:49.481Z,27.57
2018-11-26T19:00:22.999Z,28.97
2018-11-26T19:02:52.068Z,27.57
2018-11-26T19:05:20.520Z,27.47
2018-11-26T19:07:48.971Z,27.07
2018-11-26T19:10:20.251Z,30.03
2018-11-26T19:12:54.955Z,29.33
2018-11-26T19:15:26.136Z,29.13
2018-11-26T19:17:56.671Z,28.07
2018-11-26T19:20:25.026Z,28.00
2018-11-26T19:22:53.459Z,30.13
2018-11-26T19:25:21.827Z,28.37
2018-11-26T19:27:50.167Z,28.80
2018-11-26T19:30:22.975Z,30.10
2018-11-26T19:32:46.993Z,30.50
2018-11-26T19:35:15.748Z,30.03
2018-11-26T19:37:44.097Z,27.43
2018-11-26T19:40:14.568Z,29.10
2018-11-26T19:42:45.112Z,28.53
2018-11-26T19:45:16.167Z,28.77
2018-11-26T19:47:45.830Z,28.83
2018-11-26T19:50:15.369Z,31.03
2018-11-26T19:52:43.879Z,28.70
2018-11-26T19:55:14.689Z,29.43
2018-11-26T19:57:43.160Z,29.03
2018-11-26T20:00:16.970Z,29.67
2018-11-26T20:02:46.964Z,28.17
2018-11-26T20:05:23.479Z,30.20
2018-11-26T20:07:51.830Z,29.33
2018-11-26T20:10:20.265Z,29.57
2018-11-26T20:12:48.617Z,29.73
2018-11-26T20:15:17.558Z,30.50
2018-11-26T20:17:46.034Z,29.20
2018-11-26T20:20:19.464Z,30.00
2018-11-26T20:22:52.117Z,29.80
2018-11-26T20:25:20.528Z,29.57
2018-11-26T20:27:48.860Z,30.17
2018-11-26T20:30:17.289Z,29.20
2018-11-26T20:32:47.572Z,29.60
2018-11-26T20:35:15.999Z,30.50
2018-11-26T20:37:44.329Z,30.43
2018-11-26T20:40:13.940Z,30.23
2018-11-26T20:42:46.919Z,30.00
2018-11-26T20:45:16.699Z,30.13
2018-11-26T20:47:46.033Z,30.17
2018-11-26T20:50:18.817Z,28.27
2018-11-26T20:52:47.382Z,29.10
2018-11-26T20:55:17.920Z,29.90
2018-11-26T20:57:46.941Z,31.13
2018-11-26T21:00:17.540Z,30.93
2018-11-26T21:02:47.055Z,32.57
2018-11-26T21:05:16.677Z,32.73
2018-11-26T21:07:45.060Z,31.70
2018-11-26T21:10:14.389Z,30.27
2018-11-26T21:12:42.924Z,32.07
2018-11-26T21:15:13.470Z,30.93
2018-11-26T21:17:44.013Z,33.87
2018-11-26T21:20:17.919Z,32.93
2018-11-26T21:22:47.300Z,32.37
2018-11-26T21:25:16.519Z,33.60
2018-11-26T21:27:44.991Z,31.60
2018-11-26T21:30:15.543Z,32.80
2018-11-26T21:32:45.011Z,31.83
2018-11-26T21:35:14.561Z,31.73
2018-11-26T21:37:44.096Z,31.97
2018-11-26T21:40:20.048Z,31.57
2018-11-26T21:42:43.022Z,32.23
2018-11-26T21:45:14.017Z,33.13
2018-11-26T21:47:43.441Z,30.67
2018-11-26T21:50:12.797Z,31.67
2018-11-26T21:52:41.210Z,32.70
2018-11-26T21:55:14.358Z,32.93
2018-11-26T21:57:46.034Z,33.43
2018-11-26T22:00:22.749Z,33.30
2018-11-26T22:02:51.336Z,31.23
2018-11-26T22:05:19.662Z,29.57
2018-11-26T22:07:48.072Z,32.17
2018-11-26T22:10:18.325Z,30.57
2018-11-26T22:12:48.742Z,33.10
2018-11-26T22:15:17.105Z,31.73
2018-11-26T22:17:45.478Z,31.50
2018-11-26T22:20:24.648Z,33.60
2018-11-26T22:22:52.999Z,30.53
2018-11-26T22:25:22.344Z,31.17
2018-11-26T22:27:50.895Z,31.00
2018-11-26T22:30:21.316Z,30.33
2018-11-26T22:32:49.672Z,29.73
2018-11-26T22:35:17.963Z,30.37
2018-11-26T22:37:46.253Z,29.87
2018-11-26T22:40:19.320Z,30.23
2018-11-26T22:42:48.252Z,28.37
2018-11-26T22:48:10.297Z,29.63
2018-11-26T22:50:39.771Z,28.47
2018-11-26T22:53:08.746Z,29.13
2018-11-26T22:55:37.113Z,27.70
2018-11-26T22:58:06.947Z,28.47
2018-11-26T23:00:42.988Z,28.97
2018-11-26T23:03:13.911Z,27.73
2018-11-26T23:05:42.227Z,27.03
2018-11-26T23:08:10.524Z,27.57
2018-11-26T23:10:38.826Z,27.57
2018-11-26T23:13:07.975Z,27.33
2018-11-26T23:15:36.308Z,26.50
2018-11-26T23:18:04.853Z,26.60
2018-11-26T23:20:33.736Z,27.73
2018-11-26T23:23:03.532Z,28.33
2018-11-26T23:25:35.306Z,28.47
2018-11-26T23:28:03.613Z,27.40
2018-11-26T23:30:32.290Z,24.07
2018-11-26T23:33:01.909Z,28.20
2018-11-26T23:35:30.179Z,26.43
2018-11-26T23:37:58.448Z,27.47
2018-11-26T23:40:26.974Z,25.80
2018-11-26T23:42:55.355Z,27.23
2018-11-26T23:45:24.532Z,25.20
2018-11-26T23:47:52.844Z,26.67
2018-11-26T23:50:21.314Z,25.33
2018-11-26T23:52:49.599Z,23.93
2018-11-26T23:55:20.492Z,27.90
2018-11-26T23:57:48.887Z,25.13
